sensor_id;sensor_type;location;lat;lon;timestamp;P1;durP1;ratioP1;P2;durP2;ratioP2
8562;SDS011;16392;52.508;13.468;2022-07-29T00:00:25;468.60;;;154.38;;
8562;SDS011;16392;52.508;13.468;2022-07-29T00:02:52;470.10;;;152.15;;
8562;SDS011;16392;52.508;13.468;2022-07-29T00:05:20;475.45;;;168.05;;
8562;SDS011;16392;52.508;13.468;2022-07-29T00:07:47;476.08;;;162.73;;
8562;SDS011;16392;52.508;13.468;2022-07-29T00:10:13;473.38;;;160.32;;
8562;SDS011;16392;52.508;13.468;2022-07-29T00:12:40;468.38;;;151.48;;
8562;SDS011;16392;52.508;13.468;2022-07-29T00:15:07;470.25;;;156.65;;
8562;SDS011;16392;52.508;13.468;2022-07-29T00:17:34;471.65;;;156.70;;
8562;SDS011;16392;52.508;13.468;2022-07-29T00:20:01;467.35;;;150.13;;
8562;SDS011;16392;52.508;13.468;2022-07-29T00:22:28;470.25;;;153.65;;
8562;SDS011;16392;52.508;13.468;2022-07-29T00:24:55;468.45;;;152.60;;
8562;SDS011;16392;52.508;13.468;2022-07-29T00:27:22;467.45;;;152.13;;
8562;SDS011;16392;52.508;13.468;2022-07-29T00:29:48;467.17;;;149.77;;
8562;SDS011;16392;52.508;13.468;2022-07-29T00:32:15;464.88;;;145.07;;
8562;SDS011;16392;52.508;13.468;2022-07-29T00:34:42;464.83;;;147.18;;
8562;SDS011;16392;52.508;13.468;2022-07-29T00:37:27;468.67;;;147.65;;
8562;SDS011;16392;52.508;13.468;2022-07-29T00:39:54;462.88;;;142.35;;
8562;SDS011;16392;52.508;13.468;2022-07-29T00:42:21;459.85;;;138.77;;
8562;SDS011;16392;52.508;13.468;2022-07-29T00:44:48;460.05;;;139.93;;
8562;SDS011;16392;52.508;13.468;2022-07-29T00:47:17;462.02;;;140.02;;
8562;SDS011;16392;52.508;13.468;2022-07-29T00:49:44;463.77;;;145.85;;
8562;SDS011;16392;52.508;13.468;2022-07-29T00:52:11;463.30;;;140.88;;
8562;SDS011;16392;52.508;13.468;2022-07-29T00:54:39;461.20;;;144.75;;
8562;SDS011;16392;52.508;13.468;2022-07-29T00:57:06;457.83;;;134.43;;
8562;SDS011;16392;52.508;13.468;2022-07-29T00:59:33;470.73;;;143.38;;
8562;SDS011;16392;52.508;13.468;2022-07-29T01:02:00;460.75;;;135.15;;
8562;SDS011;16392;52.508;13.468;2022-07-29T01:04:27;460.08;;;138.57;;
8562;SDS011;16392;52.508;13.468;2022-07-29T01:06:54;460.00;;;138.70;;
8562;SDS011;16392;52.508;13.468;2022-07-29T01:09:21;459.52;;;133.48;;
8562;SDS011;16392;52.508;13.468;2022-07-29T01:11:50;459.75;;;137.73;;
8562;SDS011;16392;52.508;13.468;2022-07-29T01:14:17;456.73;;;134.63;;
8562;SDS011;16392;52.508;13.468;2022-07-29T01:16:50;455.48;;;134.18;;
8562;SDS011;16392;52.508;13.468;2022-07-29T01:22:14;459.33;;;133.43;;
8562;SDS011;16392;52.508;13.468;2022-07-29T01:24:57;457.58;;;131.35;;
8562;SDS011;16392;52.508;13.468;2022-07-29T01:27:41;457.00;;;135.48;;
8562;SDS011;16392;52.508;13.468;2022-07-29T01:30:19;454.65;;;131.55;;
8562;SDS011;16392;52.508;13.468;2022-07-29T01:32:48;458.17;;;130.82;;
8562;SDS011;16392;52.508;13.468;2022-07-29T01:35:19;456.67;;;134.70;;
8562;SDS011;16392;52.508;13.468;2022-07-29T01:37:50;457.70;;;136.35;;
8562;SDS011;16392;52.508;13.468;2022-07-29T01:40:22;454.20;;;132.27;;
8562;SDS011;16392;52.508;13.468;2022-07-29T01:42:54;458.30;;;134.80;;
8562;SDS011;16392;52.508;13.468;2022-07-29T01:45:25;461.08;;;132.65;;
8562;SDS011;16392;52.508;13.468;2022-07-29T01:47:56;459.65;;;135.32;;
8562;SDS011;16392;52.508;13.468;2022-07-29T01:50:26;457.55;;;134.38;;
8562;SDS011;16392;52.508;13.468;2022-07-29T01:52:58;456.63;;;134.73;;
8562;SDS011;16392;52.508;13.468;2022-07-29T01:55:28;458.05;;;135.13;;
8562;SDS011;16392;52.508;13.468;2022-07-29T01:57:58;457.80;;;131.40;;
8562;SDS011;16392;52.508;13.468;2022-07-29T02:00:28;455.83;;;134.95;;
8562;SDS011;16392;52.508;13.468;2022-07-29T02:02:58;459.75;;;135.88;;
8562;SDS011;16392;52.508;13.468;2022-07-29T02:05:28;456.38;;;134.85;;
8562;SDS011;16392;52.508;13.468;2022-07-29T02:07:58;457.83;;;135.13;;
8562;SDS011;16392;52.508;13.468;2022-07-29T02:10:28;456.50;;;136.70;;
8562;SDS011;16392;52.508;13.468;2022-07-29T02:12:57;454.20;;;126.72;;
8562;SDS011;16392;52.508;13.468;2022-07-29T02:15:25;458.17;;;134.32;;
8562;SDS011;16392;52.508;13.468;2022-07-29T02:17:56;454.20;;;128.00;;
8562;SDS011;16392;52.508;13.468;2022-07-29T02:20:27;453.48;;;131.18;;
8562;SDS011;16392;52.508;13.468;2022-07-29T02:22:54;456.83;;;133.48;;
8562;SDS011;16392;52.508;13.468;2022-07-29T02:25:24;456.42;;;132.13;;
8562;SDS011;16392;52.508;13.468;2022-07-29T02:27:53;453.23;;;127.75;;
8562;SDS011;16392;52.508;13.468;2022-07-29T02:30:21;460.38;;;133.55;;
8562;SDS011;16392;52.508;13.468;2022-07-29T02:32:51;456.52;;;133.90;;
8562;SDS011;16392;52.508;13.468;2022-07-29T02:35:19;453.77;;;127.28;;
8562;SDS011;16392;52.508;13.468;2022-07-29T02:37:46;453.60;;;128.27;;
8562;SDS011;16392;52.508;13.468;2022-07-29T02:40:35;458.20;;;135.00;;
8562;SDS011;16392;52.508;13.468;2022-07-29T02:43:04;452.73;;;128.98;;
8562;SDS011;16392;52.508;13.468;2022-07-29T02:45:32;451.02;;;123.75;;
8562;SDS011;16392;52.508;13.468;2022-07-29T02:48:01;460.20;;;132.20;;
8562;SDS011;16392;52.508;13.468;2022-07-29T02:50:32;453.70;;;131.18;;
8562;SDS011;16392;52.508;13.468;2022-07-29T02:53:05;458.90;;;131.95;;
8562;SDS011;16392;52.508;13.468;2022-07-29T02:55:40;455.70;;;133.68;;
8562;SDS011;16392;52.508;13.468;2022-07-29T02:58:10;453.73;;;130.23;;
8562;SDS011;16392;52.508;13.468;2022-07-29T03:00:41;454.27;;;131.27;;
8562;SDS011;16392;52.508;13.468;2022-07-29T03:03:12;452.02;;;127.68;;
8562;SDS011;16392;52.508;13.468;2022-07-29T03:05:41;452.92;;;131.80;;
8562;SDS011;16392;52.508;13.468;2022-07-29T03:08:08;454.83;;;133.65;;
8562;SDS011;16392;52.508;13.468;2022-07-29T03:10:37;453.40;;;128.15;;
8562;SDS011;16392;52.508;13.468;2022-07-29T03:13:05;451.00;;;124.82;;
8562;SDS011;16392;52.508;13.468;2022-07-29T03:15:33;448.33;;;126.03;;
8562;SDS011;16392;52.508;13.468;2022-07-29T03:18:00;449.20;;;126.57;;
8562;SDS011;16392;52.508;13.468;2022-07-29T03:20:29;453.45;;;129.43;;
8562;SDS011;16392;52.508;13.468;2022-07-29T03:22:58;452.40;;;133.70;;
8562;SDS011;16392;52.508;13.468;2022-07-29T03:25:24;449.27;;;129.45;;
8562;SDS011;16392;52.508;13.468;2022-07-29T03:27:52;456.13;;;127.22;;
8562;SDS011;16392;52.508;13.468;2022-07-29T03:30:18;453.27;;;130.88;;
8562;SDS011;16392;52.508;13.468;2022-07-29T03:32:45;450.05;;;127.72;;
8562;SDS011;16392;52.508;13.468;2022-07-29T03:35:11;451.48;;;129.77;;
8562;SDS011;16392;52.508;13.468;2022-07-29T03:37:39;449.73;;;130.40;;
8562;SDS011;16392;52.508;13.468;2022-07-29T03:40:07;447.58;;;126.63;;
8562;SDS011;16392;52.508;13.468;2022-07-29T03:42:36;448.17;;;127.05;;
8562;SDS011;16392;52.508;13.468;2022-07-29T03:45:06;453.48;;;136.23;;
8562;SDS011;16392;52.508;13.468;2022-07-29T03:47:37;449.17;;;124.90;;
8562;SDS011;16392;52.508;13.468;2022-07-29T03:50:08;446.85;;;127.10;;
8562;SDS011;16392;52.508;13.468;2022-07-29T03:52:39;448.50;;;126.75;;
8562;SDS011;16392;52.508;13.468;2022-07-29T03:55:07;445.35;;;124.60;;
8562;SDS011;16392;52.508;13.468;2022-07-29T03:57:34;447.33;;;125.65;;
8562;SDS011;16392;52.508;13.468;2022-07-29T04:00:03;451.13;;;128.85;;
8562;SDS011;16392;52.508;13.468;2022-07-29T04:02:31;447.30;;;128.20;;
8562;SDS011;16392;52.508;13.468;2022-07-29T04:04:58;449.63;;;128.45;;
8562;SDS011;16392;52.508;13.468;2022-07-29T04:07:25;447.83;;;129.05;;
8562;SDS011;16392;52.508;13.468;2022-07-29T04:09:53;449.00;;;128.82;;
8562;SDS011;16392;52.508;13.468;2022-07-29T04:12:19;448.48;;;126.78;;
8562;SDS011;16392;52.508;13.468;2022-07-29T04:14:46;450.88;;;134.32;;
8562;SDS011;16392;52.508;13.468;2022-07-29T04:17:13;446.42;;;125.25;;
8562;SDS011;16392;52.508;13.468;2022-07-29T04:19:40;452.80;;;134.55;;
8562;SDS011;16392;52.508;13.468;2022-07-29T04:22:06;450.25;;;133.02;;
8562;SDS011;16392;52.508;13.468;2022-07-29T04:24:34;450.70;;;132.82;;
8562;SDS011;16392;52.508;13.468;2022-07-29T04:27:02;449.50;;;132.98;;
8562;SDS011;16392;52.508;13.468;2022-07-29T04:29:28;449.58;;;129.00;;
8562;SDS011;16392;52.508;13.468;2022-07-29T04:31:55;450.02;;;132.70;;
8562;SDS011;16392;52.508;13.468;2022-07-29T04:34:22;447.92;;;126.45;;
8562;SDS011;16392;52.508;13.468;2022-07-29T04:36:48;452.10;;;135.40;;
8562;SDS011;16392;52.508;13.468;2022-07-29T04:39:15;448.23;;;131.80;;
8562;SDS011;16392;52.508;13.468;2022-07-29T04:41:43;455.02;;;143.60;;
8562;SDS011;16392;52.508;13.468;2022-07-29T04:44:11;452.17;;;132.88;;
8562;SDS011;16392;52.508;13.468;2022-07-29T04:46:37;450.40;;;134.25;;
8562;SDS011;16392;52.508;13.468;2022-07-29T04:49:04;453.45;;;138.73;;
8562;SDS011;16392;52.508;13.468;2022-07-29T04:51:31;452.40;;;135.73;;
8562;SDS011;16392;52.508;13.468;2022-07-29T04:53:57;453.27;;;138.23;;
8562;SDS011;16392;52.508;13.468;2022-07-29T04:56:24;455.63;;;142.82;;
8562;SDS011;16392;52.508;13.468;2022-07-29T04:58:51;451.98;;;138.38;;
8562;SDS011;16392;52.508;13.468;2022-07-29T05:01:19;454.52;;;142.15;;
8562;SDS011;16392;52.508;13.468;2022-07-29T05:03:47;455.17;;;146.18;;
8562;SDS011;16392;52.508;13.468;2022-07-29T05:06:19;453.83;;;144.80;;
8562;SDS011;16392;52.508;13.468;2022-07-29T05:08:45;453.95;;;147.32;;
8562;SDS011;16392;52.508;13.468;2022-07-29T05:11:12;455.75;;;145.77;;
8562;SDS011;16392;52.508;13.468;2022-07-29T05:13:38;459.80;;;150.52;;
8562;SDS011;16392;52.508;13.468;2022-07-29T05:16:05;453.45;;;140.52;;
8562;SDS011;16392;52.508;13.468;2022-07-29T05:18:35;459.23;;;154.00;;
8562;SDS011;16392;52.508;13.468;2022-07-29T05:21:01;456.98;;;152.20;;
8562;SDS011;16392;52.508;13.468;2022-07-29T05:23:28;456.45;;;146.35;;
8562;SDS011;16392;52.508;13.468;2022-07-29T05:25:55;455.75;;;148.57;;
8562;SDS011;16392;52.508;13.468;2022-07-29T05:28:21;464.88;;;168.57;;
8562;SDS011;16392;52.508;13.468;2022-07-29T05:30:48;461.60;;;157.57;;
8562;SDS011;16392;52.508;13.468;2022-07-29T05:33:15;456.58;;;150.23;;
8562;SDS011;16392;52.508;13.468;2022-07-29T05:35:42;458.80;;;152.25;;
8562;SDS011;16392;52.508;13.468;2022-07-29T05:38:09;460.33;;;158.85;;
8562;SDS011;16392;52.508;13.468;2022-07-29T05:40:36;459.23;;;151.45;;
8562;SDS011;16392;52.508;13.468;2022-07-29T05:43:02;459.08;;;154.23;;
8562;SDS011;16392;52.508;13.468;2022-07-29T05:45:29;463.13;;;165.02;;
8562;SDS011;16392;52.508;13.468;2022-07-29T05:47:56;462.00;;;150.52;;
8562;SDS011;16392;52.508;13.468;2022-07-29T05:50:22;460.58;;;159.30;;
8562;SDS011;16392;52.508;13.468;2022-07-29T05:52:50;460.25;;;150.40;;
8562;SDS011;16392;52.508;13.468;2022-07-29T05:55:17;456.98;;;149.43;;
8562;SDS011;16392;52.508;13.468;2022-07-29T05:57:44;459.83;;;156.43;;
8562;SDS011;16392;52.508;13.468;2022-07-29T06:00:11;461.42;;;166.68;;
8562;SDS011;16392;52.508;13.468;2022-07-29T06:02:38;458.60;;;154.55;;
8562;SDS011;16392;52.508;13.468;2022-07-29T06:05:05;461.65;;;163.05;;
8562;SDS011;16392;52.508;13.468;2022-07-29T06:07:32;465.50;;;170.05;;
8562;SDS011;16392;52.508;13.468;2022-07-29T06:10:00;470.00;;;178.07;;
8562;SDS011;16392;52.508;13.468;2022-07-29T06:12:27;471.70;;;192.77;;
8562;SDS011;16392;52.508;13.468;2022-07-29T06:14:53;473.88;;;196.40;;
8562;SDS011;16392;52.508;13.468;2022-07-29T06:17:20;475.52;;;197.10;;
8562;SDS011;16392;52.508;13.468;2022-07-29T06:19:47;480.83;;;202.85;;
8562;SDS011;16392;52.508;13.468;2022-07-29T06:22:14;474.33;;;204.10;;
8562;SDS011;16392;52.508;13.468;2022-07-29T06:24:42;476.92;;;202.27;;
8562;SDS011;16392;52.508;13.468;2022-07-29T06:27:10;483.55;;;227.65;;
8562;SDS011;16392;52.508;13.468;2022-07-29T06:29:37;486.55;;;225.98;;
8562;SDS011;16392;52.508;13.468;2022-07-29T06:32:04;490.30;;;244.60;;
8562;SDS011;16392;52.508;13.468;2022-07-29T06:34:31;486.75;;;237.80;;
8562;SDS011;16392;52.508;13.468;2022-07-29T06:36:58;484.08;;;234.23;;
8562;SDS011;16392;52.508;13.468;2022-07-29T06:39:25;486.70;;;248.75;;
8562;SDS011;16392;52.508;13.468;2022-07-29T06:41:51;488.65;;;248.70;;
8562;SDS011;16392;52.508;13.468;2022-07-29T06:44:20;488.10;;;248.07;;
8562;SDS011;16392;52.508;13.468;2022-07-29T06:46:46;492.77;;;259.67;;
8562;SDS011;16392;52.508;13.468;2022-07-29T06:49:14;494.05;;;269.17;;
8562;SDS011;16392;52.508;13.468;2022-07-29T06:51:41;494.90;;;271.90;;
8562;SDS011;16392;52.508;13.468;2022-07-29T06:54:08;495.38;;;277.23;;
8562;SDS011;16392;52.508;13.468;2022-07-29T06:56:35;496.40;;;281.55;;
8562;SDS011;16392;52.508;13.468;2022-07-29T06:59:02;492.38;;;267.67;;
8562;SDS011;16392;52.508;13.468;2022-07-29T07:01:30;495.35;;;281.48;;
8562;SDS011;16392;52.508;13.468;2022-07-29T07:03:57;489.00;;;258.20;;
8562;SDS011;16392;52.508;13.468;2022-07-29T07:06:23;491.58;;;259.08;;
8562;SDS011;16392;52.508;13.468;2022-07-29T07:08:50;486.10;;;250.77;;
8562;SDS011;16392;52.508;13.468;2022-07-29T07:11:16;484.98;;;249.65;;
8562;SDS011;16392;52.508;13.468;2022-07-29T07:13:43;488.55;;;254.20;;
8562;SDS011;16392;52.508;13.468;2022-07-29T07:16:10;486.65;;;252.10;;
8562;SDS011;16392;52.508;13.468;2022-07-29T07:18:38;487.23;;;252.30;;
8562;SDS011;16392;52.508;13.468;2022-07-29T07:21:04;495.90;;;273.73;;
8562;SDS011;16392;52.508;13.468;2022-07-29T07:23:31;496.75;;;283.40;;
8562;SDS011;16392;52.508;13.468;2022-07-29T07:25:58;504.95;;;308.65;;
8562;SDS011;16392;52.508;13.468;2022-07-29T07:28:24;508.65;;;323.52;;
8562;SDS011;16392;52.508;13.468;2022-07-29T07:30:51;503.55;;;312.08;;
8562;SDS011;16392;52.508;13.468;2022-07-29T07:33:17;504.63;;;316.42;;
8562;SDS011;16392;52.508;13.468;2022-07-29T07:35:46;504.40;;;318.40;;
8562;SDS011;16392;52.508;13.468;2022-07-29T07:38:12;507.90;;;323.23;;
8562;SDS011;16392;52.508;13.468;2022-07-29T07:40:39;506.27;;;330.77;;
8562;SDS011;16392;52.508;13.468;2022-07-29T07:43:06;504.60;;;322.73;;
8562;SDS011;16392;52.508;13.468;2022-07-29T07:45:32;517.72;;;360.10;;
8562;SDS011;16392;52.508;13.468;2022-07-29T07:48:02;514.63;;;363.70;;
8562;SDS011;16392;52.508;13.468;2022-07-29T07:50:28;517.88;;;381.90;;
8562;SDS011;16392;52.508;13.468;2022-07-29T07:52:56;518.35;;;397.30;;
8562;SDS011;16392;52.508;13.468;2022-07-29T07:55:23;528.42;;;417.95;;
8562;SDS011;16392;52.508;13.468;2022-07-29T07:57:50;521.65;;;411.55;;
8562;SDS011;16392;52.508;13.468;2022-07-29T08:00:17;530.88;;;438.27;;
8562;SDS011;16392;52.508;13.468;2022-07-29T08:02:44;525.53;;;420.60;;
8562;SDS011;16392;52.508;13.468;2022-07-29T08:05:11;523.05;;;423.23;;
8562;SDS011;16392;52.508;13.468;2022-07-29T08:07:42;522.45;;;414.70;;
8562;SDS011;16392;52.508;13.468;2022-07-29T08:10:11;522.58;;;414.33;;
8562;SDS011;16392;52.508;13.468;2022-07-29T08:12:37;527.60;;;421.88;;
8562;SDS011;16392;52.508;13.468;2022-07-29T08:15:05;532.15;;;444.42;;
8562;SDS011;16392;52.508;13.468;2022-07-29T08:17:32;532.00;;;454.88;;
8562;SDS011;16392;52.508;13.468;2022-07-29T08:20:00;529.70;;;460.50;;
8562;SDS011;16392;52.508;13.468;2022-07-29T08:22:26;531.13;;;467.88;;
8562;SDS011;16392;52.508;13.468;2022-07-29T08:24:53;527.67;;;455.45;;
8562;SDS011;16392;52.508;13.468;2022-07-29T08:27:22;533.28;;;469.15;;
8562;SDS011;16392;52.508;13.468;2022-07-29T08:29:51;525.90;;;438.17;;
8562;SDS011;16392;52.508;13.468;2022-07-29T08:32:18;526.53;;;450.05;;
8562;SDS011;16392;52.508;13.468;2022-07-29T08:34:44;529.70;;;460.00;;
8562;SDS011;16392;52.508;13.468;2022-07-29T08:37:11;531.85;;;469.27;;
8562;SDS011;16392;52.508;13.468;2022-07-29T08:39:38;538.30;;;478.48;;
8562;SDS011;16392;52.508;13.468;2022-07-29T08:42:06;558.50;;;498.92;;
8562;SDS011;16392;52.508;13.468;2022-07-29T08:44:34;547.88;;;488.45;;
8562;SDS011;16392;52.508;13.468;2022-07-29T08:47:01;531.53;;;460.73;;
8562;SDS011;16392;52.508;13.468;2022-07-29T08:49:28;525.53;;;437.05;;
8562;SDS011;16392;52.508;13.468;2022-07-29T08:51:55;526.47;;;429.85;;
8562;SDS011;16392;52.508;13.468;2022-07-29T08:54:24;528.70;;;436.17;;
8562;SDS011;16392;52.508;13.468;2022-07-29T08:56:51;528.20;;;441.52;;
8562;SDS011;16392;52.508;13.468;2022-07-29T08:59:19;524.53;;;435.75;;
8562;SDS011;16392;52.508;13.468;2022-07-29T09:01:49;528.50;;;437.27;;
8562;SDS011;16392;52.508;13.468;2022-07-29T09:04:18;524.70;;;431.63;;
8562;SDS011;16392;52.508;13.468;2022-07-29T09:06:47;525.97;;;438.52;;
8562;SDS011;16392;52.508;13.468;2022-07-29T09:09:16;521.80;;;410.02;;
8562;SDS011;16392;52.508;13.468;2022-07-29T09:11:43;523.45;;;422.73;;
8562;SDS011;16392;52.508;13.468;2022-07-29T09:14:10;519.92;;;414.75;;
8562;SDS011;16392;52.508;13.468;2022-07-29T09:16:45;520.58;;;406.73;;
8562;SDS011;16392;52.508;13.468;2022-07-29T09:19:21;519.53;;;404.83;;
8562;SDS011;16392;52.508;13.468;2022-07-29T09:21:49;522.58;;;422.95;;
8562;SDS011;16392;52.508;13.468;2022-07-29T09:24:38;524.35;;;428.33;;
8562;SDS011;16392;52.508;13.468;2022-07-29T09:27:11;527.63;;;443.60;;
8562;SDS011;16392;52.508;13.468;2022-07-29T09:29:45;530.25;;;462.27;;
8562;SDS011;16392;52.508;13.468;2022-07-29T09:32:12;539.33;;;480.00;;
8562;SDS011;16392;52.508;13.468;2022-07-29T09:34:40;528.20;;;460.88;;
8562;SDS011;16392;52.508;13.468;2022-07-29T09:37:07;531.40;;;471.60;;
8562;SDS011;16392;52.508;13.468;2022-07-29T09:39:35;525.85;;;449.60;;
8562;SDS011;16392;52.508;13.468;2022-07-29T09:42:03;525.80;;;451.10;;
8562;SDS011;16392;52.508;13.468;2022-07-29T09:44:40;525.17;;;444.20;;
8562;SDS011;16392;52.508;13.468;2022-07-29T09:47:08;524.35;;;439.92;;
8562;SDS011;16392;52.508;13.468;2022-07-29T09:49:36;536.88;;;468.70;;
8562;SDS011;16392;52.508;13.468;2022-07-29T09:52:18;525.47;;;438.58;;
8562;SDS011;16392;52.508;13.468;2022-07-29T09:54:45;527.63;;;456.20;;
8562;SDS011;16392;52.508;13.468;2022-07-29T09:57:22;526.92;;;448.00;;
8562;SDS011;16392;52.508;13.468;2022-07-29T09:59:55;526.08;;;448.13;;
8562;SDS011;16392;52.508;13.468;2022-07-29T10:02:24;526.60;;;448.20;;
8562;SDS011;16392;52.508;13.468;2022-07-29T10:04:54;529.00;;;461.23;;
8562;SDS011;16392;52.508;13.468;2022-07-29T10:07:22;527.53;;;455.42;;
8562;SDS011;16392;52.508;13.468;2022-07-29T10:09:52;530.08;;;462.70;;
8562;SDS011;16392;52.508;13.468;2022-07-29T10:12:20;527.33;;;456.40;;
8562;SDS011;16392;52.508;13.468;2022-07-29T10:14:47;541.30;;;482.25;;
8562;SDS011;16392;52.508;13.468;2022-07-29T10:17:15;539.95;;;480.60;;
8562;SDS011;16392;52.508;13.468;2022-07-29T10:19:43;569.08;;;509.33;;
8562;SDS011;16392;52.508;13.468;2022-07-29T10:22:10;565.08;;;505.50;;
8562;SDS011;16392;52.508;13.468;2022-07-29T10:24:38;589.00;;;528.78;;
8562;SDS011;16392;52.508;13.468;2022-07-29T10:27:05;597.05;;;536.67;;
8562;SDS011;16392;52.508;13.468;2022-07-29T10:29:34;600.40;;;540.15;;
8562;SDS011;16392;52.508;13.468;2022-07-29T10:32:10;577.80;;;518.17;;
8562;SDS011;16392;52.508;13.468;2022-07-29T10:34:50;582.45;;;522.50;;
8562;SDS011;16392;52.508;13.468;2022-07-29T10:37:36;585.92;;;525.85;;
8562;SDS011;16392;52.508;13.468;2022-07-29T10:40:17;597.72;;;537.35;;
8562;SDS011;16392;52.508;13.468;2022-07-29T10:43:14;578.42;;;518.30;;
8562;SDS011;16392;52.508;13.468;2022-07-29T10:45:44;564.03;;;504.40;;
8562;SDS011;16392;52.508;13.468;2022-07-29T10:48:12;562.90;;;503.40;;
8562;SDS011;16392;52.508;13.468;2022-07-29T10:50:52;581.13;;;520.75;;
8562;SDS011;16392;52.508;13.468;2022-07-29T10:53:20;587.60;;;527.53;;
8562;SDS011;16392;52.508;13.468;2022-07-29T10:55:49;589.05;;;529.05;;
8562;SDS011;16392;52.508;13.468;2022-07-29T10:58:17;617.08;;;556.55;;
8562;SDS011;16392;52.508;13.468;2022-07-29T11:00:46;607.63;;;547.25;;
8562;SDS011;16392;52.508;13.468;2022-07-29T11:03:42;633.45;;;572.03;;
8562;SDS011;16392;52.508;13.468;2022-07-29T11:06:10;632.65;;;571.40;;
8562;SDS011;16392;52.508;13.468;2022-07-29T11:08:37;629.83;;;568.95;;
8562;SDS011;16392;52.508;13.468;2022-07-29T11:14:03;609.33;;;548.95;;
8562;SDS011;16392;52.508;13.468;2022-07-29T11:19:25;594.67;;;534.45;;
8562;SDS011;16392;52.508;13.468;2022-07-29T11:21:52;584.55;;;524.75;;
8562;SDS011;16392;52.508;13.468;2022-07-29T11:24:19;597.80;;;537.75;;
8562;SDS011;16392;52.508;13.468;2022-07-29T11:29:57;582.35;;;522.40;;
8562;SDS011;16392;52.508;13.468;2022-07-29T11:32:35;590.65;;;530.58;;
8562;SDS011;16392;52.508;13.468;2022-07-29T11:35:13;598.90;;;538.50;;
8562;SDS011;16392;52.508;13.468;2022-07-29T11:37:42;607.80;;;547.60;;
8562;SDS011;16392;52.508;13.468;2022-07-29T11:40:18;632.15;;;571.30;;
8562;SDS011;16392;52.508;13.468;2022-07-29T11:42:49;633.53;;;572.70;;
8562;SDS011;16392;52.508;13.468;2022-07-29T11:45:21;646.90;;;585.38;;
8562;SDS011;16392;52.508;13.468;2022-07-29T11:47:53;633.85;;;572.88;;
8562;SDS011;16392;52.508;13.468;2022-07-29T11:50:26;654.65;;;593.40;;
8562;SDS011;16392;52.508;13.468;2022-07-29T11:53:02;656.53;;;595.10;;
8562;SDS011;16392;52.508;13.468;2022-07-29T11:55:29;681.33;;;619.28;;
8562;SDS011;16392;52.508;13.468;2022-07-29T11:58:02;664.25;;;602.72;;
8562;SDS011;16392;52.508;13.468;2022-07-29T12:00:30;658.72;;;597.22;;
8562;SDS011;16392;52.508;13.468;2022-07-29T12:02:59;652.70;;;591.30;;
8562;SDS011;16392;52.508;13.468;2022-07-29T12:05:31;664.78;;;603.30;;
8562;SDS011;16392;52.508;13.468;2022-07-29T12:08:07;655.47;;;594.10;;
8562;SDS011;16392;52.508;13.468;2022-07-29T12:10:35;672.42;;;610.67;;
8562;SDS011;16392;52.508;13.468;2022-07-29T12:13:03;677.67;;;615.65;;
8562;SDS011;16392;52.508;13.468;2022-07-29T12:15:30;682.92;;;620.83;;
8562;SDS011;16392;52.508;13.468;2022-07-29T12:17:57;702.15;;;639.70;;
8562;SDS011;16392;52.508;13.468;2022-07-29T12:20:24;704.25;;;641.72;;
8562;SDS011;16392;52.508;13.468;2022-07-29T12:22:52;701.50;;;639.05;;
8562;SDS011;16392;52.508;13.468;2022-07-29T12:25:20;715.10;;;652.03;;
8562;SDS011;16392;52.508;13.468;2022-07-29T12:27:47;711.97;;;649.42;;
8562;SDS011;16392;52.508;13.468;2022-07-29T12:30:33;722.88;;;659.88;;
8562;SDS011;16392;52.508;13.468;2022-07-29T12:33:09;706.67;;;644.15;;
8562;SDS011;16392;52.508;13.468;2022-07-29T12:35:41;718.38;;;655.53;;
8562;SDS011;16392;52.508;13.468;2022-07-29T12:38:09;720.85;;;657.63;;
8562;SDS011;16392;52.508;13.468;2022-07-29T12:40:37;735.95;;;672.83;;
8562;SDS011;16392;52.508;13.468;2022-07-29T12:43:08;758.50;;;694.45;;
8562;SDS011;16392;52.508;13.468;2022-07-29T12:45:38;751.60;;;687.83;;
8562;SDS011;16392;52.508;13.468;2022-07-29T12:48:06;731.80;;;668.75;;
8562;SDS011;16392;52.508;13.468;2022-07-29T12:50:34;732.65;;;669.13;;
8562;SDS011;16392;52.508;13.468;2022-07-29T12:53:08;734.85;;;671.50;;
8562;SDS011;16392;52.508;13.468;2022-07-29T12:55:40;763.85;;;699.88;;
8562;SDS011;16392;52.508;13.468;2022-07-29T12:58:08;788.80;;;724.17;;
8562;SDS011;16392;52.508;13.468;2022-07-29T13:00:35;808.55;;;743.25;;
8562;SDS011;16392;52.508;13.468;2022-07-29T13:03:03;797.63;;;732.78;;
8562;SDS011;16392;52.508;13.468;2022-07-29T13:05:39;792.17;;;727.63;;
8562;SDS011;16392;52.508;13.468;2022-07-29T13:08:11;791.22;;;726.50;;
8562;SDS011;16392;52.508;13.468;2022-07-29T13:10:38;788.78;;;724.22;;
8562;SDS011;16392;52.508;13.468;2022-07-29T13:13:06;797.72;;;732.72;;
8562;SDS011;16392;52.508;13.468;2022-07-29T13:15:34;796.28;;;731.30;;
8562;SDS011;16392;52.508;13.468;2022-07-29T13:18:01;809.10;;;744.08;;
8562;SDS011;16392;52.508;13.468;2022-07-29T13:20:30;798.90;;;734.15;;
8562;SDS011;16392;52.508;13.468;2022-07-29T13:22:58;825.78;;;760.15;;
8562;SDS011;16392;52.508;13.468;2022-07-29T13:25:26;803.40;;;738.65;;
8562;SDS011;16392;52.508;13.468;2022-07-29T13:27:54;783.33;;;719.00;;
8562;SDS011;16392;52.508;13.468;2022-07-29T13:30:21;777.45;;;713.17;;
8562;SDS011;16392;52.508;13.468;2022-07-29T13:32:49;759.78;;;696.30;;
8562;SDS011;16392;52.508;13.468;2022-07-29T13:35:18;735.15;;;672.05;;
8562;SDS011;16392;52.508;13.468;2022-07-29T13:37:45;731.05;;;668.05;;
8562;SDS011;16392;52.508;13.468;2022-07-29T13:40:12;737.70;;;674.47;;
8562;SDS011;16392;52.508;13.468;2022-07-29T13:42:40;733.67;;;670.67;;
8562;SDS011;16392;52.508;13.468;2022-07-29T13:45:08;731.65;;;668.75;;
8562;SDS011;16392;52.508;13.468;2022-07-29T13:47:36;747.08;;;683.78;;
8562;SDS011;16392;52.508;13.468;2022-07-29T13:50:03;752.75;;;688.92;;
8562;SDS011;16392;52.508;13.468;2022-07-29T13:52:33;760.15;;;696.33;;
8562;SDS011;16392;52.508;13.468;2022-07-29T13:55:00;772.65;;;708.30;;
8562;SDS011;16392;52.508;13.468;2022-07-29T13:57:27;788.45;;;723.80;;
8562;SDS011;16392;52.508;13.468;2022-07-29T13:59:53;803.20;;;737.75;;
8562;SDS011;16392;52.508;13.468;2022-07-29T14:02:20;812.67;;;747.42;;
8562;SDS011;16392;52.508;13.468;2022-07-29T14:04:47;817.22;;;751.85;;
8562;SDS011;16392;52.508;13.468;2022-07-29T14:07:14;803.60;;;738.58;;
8562;SDS011;16392;52.508;13.468;2022-07-29T14:09:42;799.42;;;734.83;;
8562;SDS011;16392;52.508;13.468;2022-07-29T14:12:09;782.97;;;718.83;;
8562;SDS011;16392;52.508;13.468;2022-07-29T14:14:35;796.50;;;731.78;;
8562;SDS011;16392;52.508;13.468;2022-07-29T14:17:02;783.15;;;718.80;;